sensor_id;sensor_type;location;lat;lon;timestamp;P1;durP1;ratioP1;P2;durP2;ratioP2
11675;SDS011;5894;42.768;23.404;2023-12-28T00:01:54;57.37;;;25.83;;
11675;SDS011;5894;42.768;23.404;2023-12-28T00:04:21;74.33;;;31.73;;
11675;SDS011;5894;42.768;23.404;2023-12-28T00:06:48;57.77;;;26.07;;
11675;SDS011;5894;42.768;23.404;2023-12-28T00:09:15;45.63;;;21.07;;
11675;SDS011;5894;42.768;23.404;2023-12-28T00:11:42;38.60;;;18.90;;
11675;SDS011;5894;42.768;23.404;2023-12-28T00:14:11;31.63;;;17.10;;
11675;SDS011;5894;42.768;23.404;2023-12-28T00:16:38;27.87;;;16.47;;
11675;SDS011;5894;42.768;23.404;2023-12-28T00:19:05;30.20;;;15.93;;
11675;SDS011;5894;42.768;23.404;2023-12-28T00:21:32;25.63;;;14.60;;
11675;SDS011;5894;42.768;23.404;2023-12-28T00:23:59;26.07;;;15.20;;
11675;SDS011;5894;42.768;23.404;2023-12-28T00:26:26;25.07;;;14.70;;
11675;SDS011;5894;42.768;23.404;2023-12-28T00:29:01;26.77;;;16.10;;
11675;SDS011;5894;42.768;23.404;2023-12-28T00:31:29;27.27;;;15.90;;
11675;SDS011;5894;42.768;23.404;2023-12-28T00:33:56;25.97;;;14.67;;
11675;SDS011;5894;42.768;23.404;2023-12-28T00:36:23;22.77;;;15.13;;
11675;SDS011;5894;42.768;23.404;2023-12-28T00:38:50;28.43;;;16.50;;
11675;SDS011;5894;42.768;23.404;2023-12-28T00:41:18;24.40;;;15.90;;
11675;SDS011;5894;42.768;23.404;2023-12-28T00:43:45;30.03;;;17.40;;
11675;SDS011;5894;42.768;23.404;2023-12-28T00:46:12;32.47;;;18.63;;
11675;SDS011;5894;42.768;23.404;2023-12-28T00:48:40;25.63;;;15.77;;
11675;SDS011;5894;42.768;23.404;2023-12-28T00:51:07;22.30;;;13.93;;
11675;SDS011;5894;42.768;23.404;2023-12-28T00:53:34;26.13;;;14.97;;
11675;SDS011;5894;42.768;23.404;2023-12-28T00:56:01;24.50;;;15.53;;
11675;SDS011;5894;42.768;23.404;2023-12-28T00:58:29;24.37;;;15.50;;
11675;SDS011;5894;42.768;23.404;2023-12-28T01:00:57;38.30;;;20.30;;
11675;SDS011;5894;42.768;23.404;2023-12-28T01:03:24;34.30;;;18.40;;
11675;SDS011;5894;42.768;23.404;2023-12-28T01:05:53;22.40;;;13.13;;
11675;SDS011;5894;42.768;23.404;2023-12-28T01:08:20;19.30;;;13.03;;
11675;SDS011;5894;42.768;23.404;2023-12-28T01:10:48;23.00;;;13.03;;
11675;SDS011;5894;42.768;23.404;2023-12-28T01:13:15;23.50;;;13.90;;
11675;SDS011;5894;42.768;23.404;2023-12-28T01:15:42;23.80;;;13.87;;
11675;SDS011;5894;42.768;23.404;2023-12-28T01:18:10;24.00;;;13.23;;
11675;SDS011;5894;42.768;23.404;2023-12-28T01:20:37;22.47;;;13.03;;
11675;SDS011;5894;42.768;23.404;2023-12-28T01:23:05;22.30;;;13.10;;
11675;SDS011;5894;42.768;23.404;2023-12-28T01:25:32;24.33;;;13.80;;
11675;SDS011;5894;42.768;23.404;2023-12-28T01:27:59;22.77;;;12.67;;
11675;SDS011;5894;42.768;23.404;2023-12-28T01:30:26;23.97;;;13.00;;
11675;SDS011;5894;42.768;23.404;2023-12-28T01:32:53;21.00;;;12.30;;
11675;SDS011;5894;42.768;23.404;2023-12-28T01:35:20;21.50;;;13.40;;
11675;SDS011;5894;42.768;23.404;2023-12-28T01:37:47;25.83;;;13.80;;
11675;SDS011;5894;42.768;23.404;2023-12-28T01:40:16;23.83;;;12.53;;
11675;SDS011;5894;42.768;23.404;2023-12-28T01:42:44;19.17;;;11.53;;
11675;SDS011;5894;42.768;23.404;2023-12-28T01:45:11;22.03;;;12.70;;
11675;SDS011;5894;42.768;23.404;2023-12-28T01:47:38;19.63;;;12.57;;
11675;SDS011;5894;42.768;23.404;2023-12-28T01:50:07;19.37;;;11.33;;
11675;SDS011;5894;42.768;23.404;2023-12-28T01:52:34;15.60;;;10.20;;
11675;SDS011;5894;42.768;23.404;2023-12-28T01:55:01;19.70;;;11.83;;
11675;SDS011;5894;42.768;23.404;2023-12-28T01:57:31;17.97;;;11.40;;
11675;SDS011;5894;42.768;23.404;2023-12-28T01:59:58;20.13;;;11.17;;
11675;SDS011;5894;42.768;23.404;2023-12-28T02:02:27;16.57;;;11.20;;
11675;SDS011;5894;42.768;23.404;2023-12-28T02:04:54;29.07;;;20.90;;
11675;SDS011;5894;42.768;23.404;2023-12-28T02:07:21;24.50;;;15.60;;
11675;SDS011;5894;42.768;23.404;2023-12-28T02:09:48;21.00;;;15.20;;
11675;SDS011;5894;42.768;23.404;2023-12-28T02:12:15;19.60;;;12.90;;
11675;SDS011;5894;42.768;23.404;2023-12-28T02:14:43;20.67;;;13.37;;
11675;SDS011;5894;42.768;23.404;2023-12-28T02:17:13;22.40;;;13.67;;
11675;SDS011;5894;42.768;23.404;2023-12-28T02:19:47;25.63;;;15.63;;
11675;SDS011;5894;42.768;23.404;2023-12-28T02:22:16;26.13;;;15.77;;
11675;SDS011;5894;42.768;23.404;2023-12-28T02:27:38;29.40;;;17.73;;
11675;SDS011;5894;42.768;23.404;2023-12-28T02:30:06;27.33;;;16.93;;
11675;SDS011;5894;42.768;23.404;2023-12-28T02:32:40;29.77;;;17.73;;
11675;SDS011;5894;42.768;23.404;2023-12-28T02:35:17;28.50;;;17.33;;
11675;SDS011;5894;42.768;23.404;2023-12-28T02:37:48;27.50;;;15.77;;
11675;SDS011;5894;42.768;23.404;2023-12-28T02:40:20;25.07;;;15.77;;
11675;SDS011;5894;42.768;23.404;2023-12-28T02:42:48;22.60;;;15.27;;
11675;SDS011;5894;42.768;23.404;2023-12-28T02:45:15;24.37;;;15.20;;
11675;SDS011;5894;42.768;23.404;2023-12-28T02:47:44;23.07;;;15.20;;
11675;SDS011;5894;42.768;23.404;2023-12-28T02:50:11;22.93;;;15.50;;
11675;SDS011;5894;42.768;23.404;2023-12-28T02:52:38;22.63;;;14.70;;
11675;SDS011;5894;42.768;23.404;2023-12-28T02:55:06;24.67;;;14.47;;
11675;SDS011;5894;42.768;23.404;2023-12-28T02:57:35;25.97;;;14.93;;
11675;SDS011;5894;42.768;23.404;2023-12-28T03:00:04;20.53;;;13.67;;
11675;SDS011;5894;42.768;23.404;2023-12-28T03:02:34;24.67;;;14.30;;
11675;SDS011;5894;42.768;23.404;2023-12-28T03:05:02;23.50;;;14.83;;
11675;SDS011;5894;42.768;23.404;2023-12-28T03:07:30;24.07;;;14.43;;
11675;SDS011;5894;42.768;23.404;2023-12-28T03:09:57;19.97;;;14.33;;
11675;SDS011;5894;42.768;23.404;2023-12-28T03:12:24;22.43;;;13.57;;
11675;SDS011;5894;42.768;23.404;2023-12-28T03:14:52;24.13;;;14.07;;
11675;SDS011;5894;42.768;23.404;2023-12-28T03:17:20;24.50;;;13.53;;
11675;SDS011;5894;42.768;23.404;2023-12-28T03:19:47;21.07;;;12.37;;
11675;SDS011;5894;42.768;23.404;2023-12-28T03:22:14;17.17;;;11.13;;
11675;SDS011;5894;42.768;23.404;2023-12-28T03:24:42;19.97;;;10.87;;
11675;SDS011;5894;42.768;23.404;2023-12-28T03:27:09;24.43;;;12.20;;
11675;SDS011;5894;42.768;23.404;2023-12-28T03:29:36;20.53;;;11.43;;
11675;SDS011;5894;42.768;23.404;2023-12-28T03:32:05;21.47;;;12.17;;
11675;SDS011;5894;42.768;23.404;2023-12-28T03:34:33;21.03;;;12.33;;
11675;SDS011;5894;42.768;23.404;2023-12-28T03:37:00;22.47;;;12.57;;
11675;SDS011;5894;42.768;23.404;2023-12-28T03:39:27;22.40;;;13.10;;
11675;SDS011;5894;42.768;23.404;2023-12-28T03:41:54;25.17;;;13.67;;
11675;SDS011;5894;42.768;23.404;2023-12-28T03:44:21;24.43;;;13.57;;
11675;SDS011;5894;42.768;23.404;2023-12-28T03:46:49;23.47;;;13.57;;
11675;SDS011;5894;42.768;23.404;2023-12-28T03:49:18;25.10;;;14.03;;
11675;SDS011;5894;42.768;23.404;2023-12-28T03:51:48;27.07;;;14.70;;
11675;SDS011;5894;42.768;23.404;2023-12-28T03:54:16;27.67;;;16.03;;
11675;SDS011;5894;42.768;23.404;2023-12-28T03:56:44;31.33;;;15.03;;
11675;SDS011;5894;42.768;23.404;2023-12-28T03:59:12;27.40;;;14.87;;
11675;SDS011;5894;42.768;23.404;2023-12-28T04:01:40;24.13;;;15.13;;
11675;SDS011;5894;42.768;23.404;2023-12-28T04:04:07;22.70;;;14.03;;
11675;SDS011;5894;42.768;23.404;2023-12-28T04:06:36;23.53;;;13.53;;
11675;SDS011;5894;42.768;23.404;2023-12-28T04:09:03;22.40;;;13.37;;
11675;SDS011;5894;42.768;23.404;2023-12-28T04:11:30;20.23;;;13.03;;
11675;SDS011;5894;42.768;23.404;2023-12-28T04:13:57;19.77;;;13.53;;
11675;SDS011;5894;42.768;23.404;2023-12-28T04:16:25;20.53;;;13.37;;
11675;SDS011;5894;42.768;23.404;2023-12-28T04:18:52;24.80;;;14.80;;
11675;SDS011;5894;42.768;23.404;2023-12-28T04:21:18;26.00;;;16.00;;
11675;SDS011;5894;42.768;23.404;2023-12-28T04:23:48;33.53;;;19.20;;
11675;SDS011;5894;42.768;23.404;2023-12-28T04:26:17;30.83;;;17.63;;
11675;SDS011;5894;42.768;23.404;2023-12-28T04:28:44;33.63;;;19.53;;
11675;SDS011;5894;42.768;23.404;2023-12-28T04:31:11;43.90;;;27.17;;
11675;SDS011;5894;42.768;23.404;2023-12-28T04:33:38;44.73;;;28.47;;
11675;SDS011;5894;42.768;23.404;2023-12-28T04:36:07;43.30;;;25.33;;
11675;SDS011;5894;42.768;23.404;2023-12-28T04:38:34;38.33;;;23.77;;
11675;SDS011;5894;42.768;23.404;2023-12-28T04:41:02;37.63;;;23.77;;
11675;SDS011;5894;42.768;23.404;2023-12-28T04:43:30;37.50;;;22.40;;
11675;SDS011;5894;42.768;23.404;2023-12-28T04:45:57;29.87;;;16.80;;
11675;SDS011;5894;42.768;23.404;2023-12-28T04:48:25;30.67;;;15.47;;
11675;SDS011;5894;42.768;23.404;2023-12-28T04:50:52;43.37;;;25.90;;
11675;SDS011;5894;42.768;23.404;2023-12-28T04:53:19;34.23;;;19.33;;
11675;SDS011;5894;42.768;23.404;2023-12-28T04:55:46;29.00;;;17.57;;
11675;SDS011;5894;42.768;23.404;2023-12-28T04:58:15;27.97;;;16.73;;
11675;SDS011;5894;42.768;23.404;2023-12-28T05:00:42;24.33;;;14.93;;
11675;SDS011;5894;42.768;23.404;2023-12-28T05:03:09;26.90;;;15.60;;
11675;SDS011;5894;42.768;23.404;2023-12-28T05:05:36;32.63;;;18.30;;
11675;SDS011;5894;42.768;23.404;2023-12-28T05:08:03;44.87;;;26.03;;
11675;SDS011;5894;42.768;23.404;2023-12-28T05:10:31;48.70;;;27.77;;
11675;SDS011;5894;42.768;23.404;2023-12-28T05:12:57;35.73;;;20.03;;
11675;SDS011;5894;42.768;23.404;2023-12-28T05:15:25;36.13;;;19.27;;
11675;SDS011;5894;42.768;23.404;2023-12-28T05:17:52;41.83;;;22.33;;
11675;SDS011;5894;42.768;23.404;2023-12-28T05:20:19;46.27;;;24.57;;
11675;SDS011;5894;42.768;23.404;2023-12-28T05:22:46;42.60;;;25.13;;
11675;SDS011;5894;42.768;23.404;2023-12-28T05:25:13;85.63;;;30.30;;
11675;SDS011;5894;42.768;23.404;2023-12-28T05:27:40;62.50;;;28.90;;
11675;SDS011;5894;42.768;23.404;2023-12-28T05:30:08;58.40;;;28.13;;
11675;SDS011;5894;42.768;23.404;2023-12-28T05:32:37;56.23;;;26.43;;
11675;SDS011;5894;42.768;23.404;2023-12-28T05:35:04;50.63;;;25.67;;
11675;SDS011;5894;42.768;23.404;2023-12-28T05:37:32;48.23;;;25.07;;
11675;SDS011;5894;42.768;23.404;2023-12-28T05:39:59;47.73;;;22.53;;
11675;SDS011;5894;42.768;23.404;2023-12-28T05:42:26;69.53;;;25.90;;
11675;SDS011;5894;42.768;23.404;2023-12-28T05:44:53;52.20;;;25.53;;
11675;SDS011;5894;42.768;23.404;2023-12-28T05:47:20;54.60;;;25.47;;
11675;SDS011;5894;42.768;23.404;2023-12-28T05:49:49;50.30;;;24.83;;
11675;SDS011;5894;42.768;23.404;2023-12-28T05:52:16;55.83;;;29.73;;
11675;SDS011;5894;42.768;23.404;2023-12-28T05:54:44;48.60;;;26.50;;
11675;SDS011;5894;42.768;23.404;2023-12-28T05:57:11;44.90;;;23.30;;
11675;SDS011;5894;42.768;23.404;2023-12-28T05:59:38;49.10;;;22.47;;
11675;SDS011;5894;42.768;23.404;2023-12-28T06:02:06;45.93;;;20.93;;
11675;SDS011;5894;42.768;23.404;2023-12-28T06:04:33;42.60;;;21.80;;
11675;SDS011;5894;42.768;23.404;2023-12-28T06:07:02;40.50;;;20.23;;
11675;SDS011;5894;42.768;23.404;2023-12-28T06:09:30;36.90;;;20.17;;
11675;SDS011;5894;42.768;23.404;2023-12-28T06:11:57;38.20;;;20.57;;
11675;SDS011;5894;42.768;23.404;2023-12-28T06:14:24;37.70;;;20.10;;
11675;SDS011;5894;42.768;23.404;2023-12-28T06:16:51;35.07;;;18.67;;
11675;SDS011;5894;42.768;23.404;2023-12-28T06:19:18;35.43;;;18.50;;
11675;SDS011;5894;42.768;23.404;2023-12-28T06:21:45;30.43;;;17.53;;
11675;SDS011;5894;42.768;23.404;2023-12-28T06:24:13;29.37;;;16.67;;
11675;SDS011;5894;42.768;23.404;2023-12-28T06:26:40;25.53;;;15.77;;
11675;SDS011;5894;42.768;23.404;2023-12-28T06:29:08;29.80;;;16.23;;
11675;SDS011;5894;42.768;23.404;2023-12-28T06:31:35;38.73;;;21.37;;
11675;SDS011;5894;42.768;23.404;2023-12-28T06:34:02;34.93;;;17.93;;
11675;SDS011;5894;42.768;23.404;2023-12-28T06:36:29;41.23;;;23.70;;
11675;SDS011;5894;42.768;23.404;2023-12-28T06:38:56;58.40;;;30.40;;
11675;SDS011;5894;42.768;23.404;2023-12-28T06:41:25;46.50;;;25.63;;
11675;SDS011;5894;42.768;23.404;2023-12-28T06:43:52;39.00;;;20.93;;
11675;SDS011;5894;42.768;23.404;2023-12-28T06:46:19;34.00;;;19.97;;
11675;SDS011;5894;42.768;23.404;2023-12-28T06:48:48;42.30;;;23.00;;
11675;SDS011;5894;42.768;23.404;2023-12-28T06:51:18;39.10;;;22.93;;
11675;SDS011;5894;42.768;23.404;2023-12-28T06:53:47;33.53;;;18.60;;
11675;SDS011;5894;42.768;23.404;2023-12-28T06:56:15;27.70;;;16.90;;
11675;SDS011;5894;42.768;23.404;2023-12-28T06:58:43;26.27;;;16.30;;
11675;SDS011;5894;42.768;23.404;2023-12-28T07:01:10;29.33;;;16.77;;
11675;SDS011;5894;42.768;23.404;2023-12-28T07:03:38;29.00;;;17.27;;
11675;SDS011;5894;42.768;23.404;2023-12-28T07:06:05;39.87;;;21.47;;
11675;SDS011;5894;42.768;23.404;2023-12-28T07:08:32;53.30;;;28.67;;
11675;SDS011;5894;42.768;23.404;2023-12-28T07:10:59;48.43;;;24.67;;
11675;SDS011;5894;42.768;23.404;2023-12-28T07:13:26;52.20;;;28.70;;
11675;SDS011;5894;42.768;23.404;2023-12-28T07:15:55;83.63;;;42.70;;
11675;SDS011;5894;42.768;23.404;2023-12-28T07:18:21;65.00;;;33.63;;
11675;SDS011;5894;42.768;23.404;2023-12-28T07:20:48;50.43;;;23.90;;
11675;SDS011;5894;42.768;23.404;2023-12-28T07:23:15;43.07;;;20.90;;
11675;SDS011;5894;42.768;23.404;2023-12-28T07:25:43;39.80;;;20.93;;
11675;SDS011;5894;42.768;23.404;2023-12-28T07:28:10;48.77;;;22.17;;
11675;SDS011;5894;42.768;23.404;2023-12-28T07:30:37;50.37;;;22.23;;
11675;SDS011;5894;42.768;23.404;2023-12-28T07:33:06;45.57;;;18.40;;
11675;SDS011;5894;42.768;23.404;2023-12-28T07:35:33;31.03;;;17.53;;
11675;SDS011;5894;42.768;23.404;2023-12-28T07:38:00;48.47;;;15.90;;
11675;SDS011;5894;42.768;23.404;2023-12-28T07:40:27;30.57;;;15.57;;
11675;SDS011;5894;42.768;23.404;2023-12-28T07:42:54;27.30;;;14.33;;
11675;SDS011;5894;42.768;23.404;2023-12-28T07:45:21;23.13;;;14.67;;
11675;SDS011;5894;42.768;23.404;2023-12-28T07:47:49;25.63;;;16.20;;
11675;SDS011;5894;42.768;23.404;2023-12-28T07:50:18;29.23;;;17.73;;
11675;SDS011;5894;42.768;23.404;2023-12-28T07:52:46;28.70;;;18.10;;
11675;SDS011;5894;42.768;23.404;2023-12-28T07:55:12;35.77;;;21.20;;
11675;SDS011;5894;42.768;23.404;2023-12-28T07:57:39;44.27;;;21.37;;
11675;SDS011;5894;42.768;23.404;2023-12-28T08:00:07;38.40;;;21.87;;
11675;SDS011;5894;42.768;23.404;2023-12-28T08:02:34;40.57;;;21.77;;
11675;SDS011;5894;42.768;23.404;2023-12-28T08:05:01;34.53;;;21.47;;
11675;SDS011;5894;42.768;23.404;2023-12-28T08:07:29;37.57;;;23.13;;
11675;SDS011;5894;42.768;23.404;2023-12-28T08:09:58;35.10;;;23.07;;
11675;SDS011;5894;42.768;23.404;2023-12-28T08:12:25;34.97;;;22.13;;
11675;SDS011;5894;42.768;23.404;2023-12-28T08:14:52;39.67;;;23.20;;
11675;SDS011;5894;42.768;23.404;2023-12-28T08:17:20;40.73;;;23.47;;
11675;SDS011;5894;42.768;23.404;2023-12-28T08:19:47;34.73;;;20.73;;
11675;SDS011;5894;42.768;23.404;2023-12-28T08:22:14;36.20;;;21.13;;
11675;SDS011;5894;42.768;23.404;2023-12-28T08:24:42;39.83;;;21.53;;
11675;SDS011;5894;42.768;23.404;2023-12-28T08:27:10;35.43;;;20.23;;
11675;SDS011;5894;42.768;23.404;2023-12-28T08:29:37;41.27;;;22.70;;
11675;SDS011;5894;42.768;23.404;2023-12-28T08:32:07;40.90;;;23.43;;
11675;SDS011;5894;42.768;23.404;2023-12-28T08:34:34;40.23;;;24.20;;
11675;SDS011;5894;42.768;23.404;2023-12-28T08:37:01;60.23;;;27.73;;
11675;SDS011;5894;42.768;23.404;2023-12-28T08:39:28;41.03;;;25.27;;
11675;SDS011;5894;42.768;23.404;2023-12-28T08:41:56;73.47;;;34.13;;
11675;SDS011;5894;42.768;23.404;2023-12-28T08:44:23;51.80;;;26.53;;
11675;SDS011;5894;42.768;23.404;2023-12-28T08:46:50;46.43;;;24.60;;
11675;SDS011;5894;42.768;23.404;2023-12-28T08:49:17;45.80;;;23.23;;
11675;SDS011;5894;42.768;23.404;2023-12-28T08:51:44;38.77;;;21.70;;
11675;SDS011;5894;42.768;23.404;2023-12-28T08:54:12;29.00;;;18.00;;
11675;SDS011;5894;42.768;23.404;2023-12-28T08:56:39;39.87;;;21.77;;
11675;SDS011;5894;42.768;23.404;2023-12-28T08:59:08;46.27;;;24.53;;
11675;SDS011;5894;42.768;23.404;2023-12-28T09:01:35;46.93;;;23.73;;
11675;SDS011;5894;42.768;23.404;2023-12-28T09:04:02;45.03;;;25.47;;
11675;SDS011;5894;42.768;23.404;2023-12-28T09:06:29;37.00;;;21.00;;
11675;SDS011;5894;42.768;23.404;2023-12-28T09:08:56;35.57;;;21.20;;
11675;SDS011;5894;42.768;23.404;2023-12-28T09:11:23;36.67;;;22.47;;
11675;SDS011;5894;42.768;23.404;2023-12-28T09:13:50;40.50;;;23.07;;
11675;SDS011;5894;42.768;23.404;2023-12-28T09:16:19;34.97;;;22.33;;
11675;SDS011;5894;42.768;23.404;2023-12-28T09:18:46;36.27;;;21.63;;
11675;SDS011;5894;42.768;23.404;2023-12-28T09:21:13;36.40;;;23.13;;
11675;SDS011;5894;42.768;23.404;2023-12-28T09:23:40;33.33;;;22.37;;
11675;SDS011;5894;42.768;23.404;2023-12-28T09:26:07;37.77;;;23.20;;
11675;SDS011;5894;42.768;23.404;2023-12-28T09:28:34;34.53;;;23.33;;
11675;SDS011;5894;42.768;23.404;2023-12-28T09:31:01;38.13;;;23.67;;
11675;SDS011;5894;42.768;23.404;2023-12-28T09:33:30;41.87;;;25.13;;
11675;SDS011;5894;42.768;23.404;2023-12-28T09:35:57;41.20;;;25.43;;
11675;SDS011;5894;42.768;23.404;2023-12-28T09:38:25;41.43;;;26.23;;
11675;SDS011;5894;42.768;23.404;2023-12-28T09:40:54;39.13;;;26.23;;
11675;SDS011;5894;42.768;23.404;2023-12-28T09:43:22;48.00;;;31.13;;
11675;SDS011;5894;42.768;23.404;2023-12-28T09:45:51;52.50;;;32.53;;
11675;SDS011;5894;42.768;23.404;2023-12-28T09:48:18;44.60;;;27.40;;
11675;SDS011;5894;42.768;23.404;2023-12-28T09:50:50;40.00;;;25.33;;
11675;SDS011;5894;42.768;23.404;2023-12-28T09:53:19;35.63;;;23.37;;
11675;SDS011;5894;42.768;23.404;2023-12-28T09:55:48;39.63;;;24.30;;
11675;SDS011;5894;42.768;23.404;2023-12-28T09:58:17;31.23;;;19.80;;
11675;SDS011;5894;42.768;23.404;2023-12-28T10:00:45;29.77;;;21.17;;
11675;SDS011;5894;42.768;23.404;2023-12-28T10:03:13;29.93;;;20.43;;
11675;SDS011;5894;42.768;23.404;2023-12-28T10:05:41;31.87;;;19.70;;
11675;SDS011;5894;42.768;23.404;2023-12-28T10:08:10;31.87;;;21.03;;
11675;SDS011;5894;42.768;23.404;2023-12-28T10:10:37;33.17;;;21.07;;
11675;SDS011;5894;42.768;23.404;2023-12-28T10:13:05;34.47;;;23.23;;
11675;SDS011;5894;42.768;23.404;2023-12-28T10:15:33;33.10;;;22.80;;
11675;SDS011;5894;42.768;23.404;2023-12-28T10:18:00;33.33;;;21.73;;
11675;SDS011;5894;42.768;23.404;2023-12-28T10:20:26;31.67;;;20.37;;
11675;SDS011;5894;42.768;23.404;2023-12-28T10:22:53;43.57;;;21.97;;
11675;SDS011;5894;42.768;23.404;2023-12-28T10:25:22;26.23;;;18.40;;
11675;SDS011;5894;42.768;23.404;2023-12-28T10:27:50;28.87;;;19.17;;
11675;SDS011;5894;42.768;23.404;2023-12-28T10:30:17;25.97;;;17.67;;
11675;SDS011;5894;42.768;23.404;2023-12-28T10:32:47;26.60;;;18.27;;
11675;SDS011;5894;42.768;23.404;2023-12-28T10:35:14;27.80;;;18.03;;
11675;SDS011;5894;42.768;23.404;2023-12-28T10:37:42;23.70;;;17.17;;
11675;SDS011;5894;42.768;23.404;2023-12-28T10:40:12;26.17;;;19.37;;
11675;SDS011;5894;42.768;23.404;2023-12-28T10:42:45;29.47;;;18.33;;
11675;SDS011;5894;42.768;23.404;2023-12-28T10:45:18;30.03;;;18.63;;
11675;SDS011;5894;42.768;23.404;2023-12-28T10:47:51;31.93;;;20.33;;
11675;SDS011;5894;42.768;23.404;2023-12-28T10:50:27;28.60;;;18.90;;
11675;SDS011;5894;42.768;23.404;2023-12-28T10:52:59;34.87;;;18.67;;
11675;SDS011;5894;42.768;23.404;2023-12-28T10:55:33;28.20;;;18.47;;
11675;SDS011;5894;42.768;23.404;2023-12-28T10:58:10;29.17;;;17.43;;
11675;SDS011;5894;42.768;23.404;2023-12-28T11:00:46;27.33;;;17.93;;
11675;SDS011;5894;42.768;23.404;2023-12-28T11:03:21;27.47;;;18.53;;
11675;SDS011;5894;42.768;23.404;2023-12-28T11:05:54;26.67;;;17.40;;
11675;SDS011;5894;42.768;23.404;2023-12-28T11:08:22;22.53;;;16.50;;
11675;SDS011;5894;42.768;23.404;2023-12-28T11:10:50;22.23;;;15.70;;
11675;SDS011;5894;42.768;23.404;2023-12-28T11:13:22;22.87;;;15.57;;
11675;SDS011;5894;42.768;23.404;2023-12-28T11:15:49;23.43;;;15.50;;
11675;SDS011;5894;42.768;23.404;2023-12-28T11:18:17;20.40;;;14.07;;
11675;SDS011;5894;42.768;23.404;2023-12-28T11:20:46;22.33;;;15.03;;
11675;SDS011;5894;42.768;23.404;2023-12-28T11:23:14;20.33;;;13.67;;
11675;SDS011;5894;42.768;23.404;2023-12-28T11:25:42;22.13;;;15.80;;
11675;SDS011;5894;42.768;23.404;2023-12-28T11:28:09;20.33;;;13.07;;
11675;SDS011;5894;42.768;23.404;2023-12-28T11:30:38;17.03;;;12.50;;
11675;SDS011;5894;42.768;23.404;2023-12-28T11:33:07;18.23;;;12.50;;
11675;SDS011;5894;42.768;23.404;2023-12-28T11:35:36;21.37;;;13.87;;
11675;SDS011;5894;42.768;23.404;2023-12-28T11:38:06;17.40;;;12.50;;
11675;SDS011;5894;42.768;23.404;2023-12-28T11:40:42;19.67;;;12.60;;
11675;SDS011;5894;42.768;23.404;2023-12-28T11:43:15;17.50;;;12.97;;
11675;SDS011;5894;42.768;23.404;2023-12-28T11:45:49;18.43;;;13.33;;
11675;SDS011;5894;42.768;23.404;2023-12-28T11:48:23;19.93;;;12.67;;
11675;SDS011;5894;42.768;23.404;2023-12-28T11:50:52;19.47;;;12.47;;
11675;SDS011;5894;42.768;23.404;2023-12-28T11:53:21;23.63;;;13.23;;
11675;SDS011;5894;42.768;23.404;2023-12-28T11:55:48;21.80;;;13.43;;
11675;SDS011;5894;42.768;23.404;2023-12-28T11:58:16;22.27;;;15.47;;
11675;SDS011;5894;42.768;23.404;2023-12-28T12:00:43;20.43;;;14.73;;
11675;SDS011;5894;42.768;23.404;2023-12-28T12:03:11;22.80;;;14.80;;
11675;SDS011;5894;42.768;23.404;2023-12-28T12:05:39;23.27;;;14.47;;
11675;SDS011;5894;42.768;23.404;2023-12-28T12:08:06;27.77;;;14.13;;
11675;SDS011;5894;42.768;23.404;2023-12-28T12:10:35;21.67;;;14.33;;
11675;SDS011;5894;42.768;23.404;2023-12-28T12:13:02;22.23;;;13.87;;
11675;SDS011;5894;42.768;23.404;2023-12-28T12:15:29;18.73;;;13.27;;
11675;SDS011;5894;42.768;23.404;2023-12-28T12:17:57;38.73;;;14.10;;
11675;SDS011;5894;42.768;23.404;2023-12-28T12:20:26;26.93;;;13.83;;
11675;SDS011;5894;42.768;23.404;2023-12-28T12:22:57;25.20;;;12.67;;
11675;SDS011;5894;42.768;23.404;2023-12-28T12:25:24;24.17;;;12.50;;
11675;SDS011;5894;42.768;23.404;2023-12-28T12:27:51;22.47;;;14.77;;
11675;SDS011;5894;42.768;23.404;2023-12-28T12:30:19;24.00;;;16.47;;
11675;SDS011;5894;42.768;23.404;2023-12-28T12:32:47;29.30;;;18.40;;
11675;SDS011;5894;42.768;23.404;2023-12-28T12:35:15;19.60;;;12.40;;
11675;SDS011;5894;42.768;23.404;2023-12-28T12:37:45;18.87;;;11.40;;
11675;SDS011;5894;42.768;23.404;2023-12-28T12:40:14;17.13;;;11.55;;
11675;SDS011;5894;42.768;23.404;2023-12-28T12:42:41;14.27;;;10.10;;
11675;SDS011;5894;42.768;23.404;2023-12-28T12:45:09;14.85;;;9.60;;
11675;SDS011;5894;42.768;23.404;2023-12-28T12:47:36;13.00;;;9.07;;
11675;SDS011;5894;42.768;23.404;2023-12-28T12:50:03;12.13;;;8.63;;
11675;SDS011;5894;42.768;23.404;2023-12-28T12:52:31;13.52;;;9.50;;
11675;SDS011;5894;42.768;23.404;2023-12-28T12:54:59;19.13;;;12.25;;
11675;SDS011;5894;42.768;23.404;2023-12-28T12:57:29;17.35;;;12.30;;
11675;SDS011;5894;42.768;23.404;2023-12-28T12:59:56;16.50;;;11.52;;
11675;SDS011;5894;42.768;23.404;2023-12-28T13:02:23;13.90;;;10.38;;
11675;SDS011;5894;42.768;23.404;2023-12-28T13:04:51;16.10;;;10.48;;
11675;SDS011;5894;42.768;23.404;2023-12-28T13:07:18;11.98;;;9.57;;
11675;SDS011;5894;42.768;23.404;2023-12-28T13:09:46;15.15;;;9.25;;
11675;SDS011;5894;42.768;23.404;2023-12-28T13:12:14;13.43;;;8.20;;
11675;SDS011;5894;42.768;23.404;2023-12-28T13:14:42;11.32;;;7.82;;
11675;SDS011;5894;42.768;23.404;2023-12-28T13:17:09;13.30;;;8.80;;
11675;SDS011;5894;42.768;23.404;2023-12-28T13:19:37;11.93;;;8.13;;
11675;SDS011;5894;42.768;23.404;2023-12-28T13:22:04;13.55;;;8.00;;
11675;SDS011;5894;42.768;23.404;2023-12-28T13:24:32;12.25;;;8.55;;
11675;SDS011;5894;42.768;23.404;2023-12-28T13:26:59;15.98;;;9.32;;
11675;SDS011;5894;42.768;23.404;2023-12-28T13:29:28;17.58;;;10.52;;
11675;SDS011;5894;42.768;23.404;2023-12-28T13:31:55;18.38;;;12.23;;
11675;SDS011;5894;42.768;23.404;2023-12-28T13:34:23;15.57;;;10.27;;
11675;SDS011;5894;42.768;23.404;2023-12-28T13:36:50;15.63;;;9.93;;
11675;SDS011;5894;42.768;23.404;2023-12-28T13:39:17;16.13;;;10.27;;
11675;SDS011;5894;42.768;23.404;2023-12-28T13:41:43;11.98;;;8.82;;
11675;SDS011;5894;42.768;23.404;2023-12-28T13:44:10;11.32;;;8.43;;
11675;SDS011;5894;42.768;23.404;2023-12-28T13:46:39;13.18;;;8.43;;
11675;SDS011;5894;42.768;23.404;2023-12-28T13:49:06;13.38;;;8.38;;
11675;SDS011;5894;42.768;23.404;2023-12-28T13:51:33;13.20;;;8.90;;
11675;SDS011;5894;42.768;23.404;2023-12-28T13:54:00;12.93;;;8.82;;
11675;SDS011;5894;42.768;23.404;2023-12-28T13:56:27;13.15;;;9.40;;
11675;SDS011;5894;42.768;23.404;2023-12-28T13:58:54;15.60;;;11.07;;
11675;SDS011;5894;42.768;23.404;2023-12-28T14:01:21;13.85;;;10.38;;
11675;SDS011;5894;42.768;23.404;2023-12-28T14:03:49;11.85;;;8.82;;
11675;SDS011;5894;42.768;23.404;2023-12-28T14:06:17;13.00;;;8.60;;
11675;SDS011;5894;42.768;23.404;2023-12-28T14:08:44;22.90;;;13.07;;
11675;SDS011;5894;42.768;23.404;2023-12-28T14:11:12;18.05;;;12.13;;
11675;SDS011;5894;42.768;23.404;2023-12-28T14:13:39;22.42;;;13.30;;
11675;SDS011;5894;42.768;23.404;2023-12-28T14:16:06;28.13;;;14.88;;
11675;SDS011;5894;42.768;23.404;2023-12-28T14:18:34;30.33;;;15.40;;
11675;SDS011;5894;42.768;23.404;2023-12-28T14:21:03;22.30;;;12.80;;
11675;SDS011;5894;42.768;23.404;2023-12-28T14:23:32;24.08;;;13.13;;
11675;SDS011;5894;42.768;23.404;2023-12-28T14:26:00;18.75;;;10.90;;
11675;SDS011;5894;42.768;23.404;2023-12-28T14:28:31;16.85;;;10.77;;
11675;SDS011;5894;42.768;23.404;2023-12-28T14:30:59;15.38;;;9.50;;